Oxon Hill, Maryland
Current Conditions -  °F | °C
As of 7:52 AM on Sunday 21 Dec 2014 (Local Time) from KDCA Reporting Station
Overcast Overcast  
Wind Chill: 32°   Ceiling: 6000
Heat Index: 37°   Visibility: 10mi
Dew Point: 24°   Wind: 6mph
Humidity: 59%   Direction: 70°ENE
Pressure: 30.35"   Gusts: NA
Location:  38.82°N, 77°W
Report Text: KDCA 211252Z 07005KT 10SM OVC060 03/M04 A3035 RMK AO2 SLP278 T00281044
Loading
Personal Weather Stations






























Interactive Weather Map New forecast layout! Learn more

10-Day Weather Forecast

Advertisements
Track Severe Weather on mobile